Time;durP1;ratioP1;P1;durP2;ratioP2;P2;SDS_P1;SDS_P2;PMS_P1;PMS_P2;Temp;Humidity;BMP_temperature;BMP_pressure;BME280_temperature;BME280_humidity;BME280_pressure;Samples;Min_cycle;Max_cycle;Signal;HPM_P1;HPM_P2
2023/08/19 00:00:16;;;;;;;5.03;1.92;;;24.70;90.40;;;;;;5022787;28;20113;-75
2023/08/19 00:02:43;;;;;;;4.25;2.25;;;24.70;90.40;;;;;;5027298;28;20460;-74
2023/08/19 00:05:09;;;;;;;3.92;2.20;;;24.70;90.40;;;;;;5027811;28;20033;-74
2023/08/19 00:07:35;;;;;;;3.17;2.17;;;24.60;90.50;;;;;;5022515;28;20043;-74
2023/08/19 00:10:02;;;;;;;3.08;1.70;;;24.60;90.60;;;;;;5020618;28;20069;-74
2023/08/19 00:12:28;;;;;;;5.85;2.25;;;24.60;90.80;;;;;;5022206;28;20507;-74
2023/08/19 00:14:57;;;;;;;4.70;2.20;;;24.50;90.80;;;;;;5000036;28;20113;-74
2023/08/19 00:17:23;;;;;;;3.75;1.95;;;24.50;91.00;;;;;;5022742;28;20029;-74
2023/08/19 00:19:50;;;;;;;7.63;2.63;;;24.40;91.10;;;;;;5027591;28;20057;-74
2023/08/19 00:22:15;;;;;;;4.00;2.20;;;24.40;91.20;;;;;;5024503;28;20416;-74
2023/08/19 00:24:41;;;;;;;5.00;2.22;;;24.30;91.30;;;;;;5026853;28;20055;-74
2023/08/19 00:27:07;;;;;;;9.48;2.35;;;24.30;91.50;;;;;;5006960;28;20063;-74
2023/08/19 00:29:32;;;;;;;4.50;2.20;;;24.20;91.70;;;;;;5026313;28;20395;-74
2023/08/19 00:31:58;;;;;;;8.75;2.50;;;24.10;91.80;;;;;;5007814;28;20088;-74
2023/08/19 00:34:24;;;;;;;4.00;2.40;;;24.10;92.20;;;;;;5022486;28;20479;-75
2023/08/19 00:36:49;;;;;;;5.55;2.17;;;24.10;92.10;;;;;;5015346;28;20056;-74
2023/08/19 00:39:15;;;;;;;3.20;2.15;;;24.00;92.20;;;;;;5006311;28;20025;-74
2023/08/19 00:41:40;;;;;;;6.60;2.45;;;24.00;92.60;;;;;;5023203;28;20488;-74
2023/08/19 00:44:07;;;;;;;7.05;2.33;;;23.90;92.30;;;;;;5021979;28;20388;-74
2023/08/19 00:46:33;;;;;;;3.83;2.25;;;23.90;92.40;;;;;;5024366;28;20030;-74
2023/08/19 00:49:00;;;;;;;3.53;2.22;;;23.80;92.40;;;;;;5006408;28;20033;-73
2023/08/19 00:51:25;;;;;;;5.65;2.30;;;23.80;92.50;;;;;;5009481;28;20096;-74
2023/08/19 00:53:52;;;;;;;5.75;2.45;;;23.80;92.50;;;;;;5017591;28;20157;-73
2023/08/19 00:56:18;;;;;;;4.03;1.88;;;23.80;92.50;;;;;;5020750;28;20041;-73
2023/08/19 00:58:44;;;;;;;4.43;2.20;;;23.70;92.50;;;;;;5022253;28;20079;-74
2023/08/19 01:01:10;;;;;;;3.38;2.10;;;23.70;92.60;;;;;;5024230;28;20025;-74
2023/08/19 01:03:35;;;;;;;5.97;2.35;;;23.70;92.60;;;;;;5003130;28;20440;-73
2023/08/19 01:06:22;;;;;;;5.85;2.25;;;23.60;92.60;;;;;;5024828;28;20037;-73
2023/08/19 01:09:04;;;;;;;7.22;2.25;;;23.60;92.70;;;;;;5020572;28;20071;-74
2023/08/19 01:11:43;;;;;;;6.18;2.00;;;23.60;92.70;;;;;;5005561;28;20112;-74
2023/08/19 01:14:26;;;;;;;4.43;2.20;;;23.60;92.80;;;;;;4998527;28;20112;-74
2023/08/19 01:16:53;;;;;;;4.05;2.00;;;23.50;92.80;;;;;;5026695;28;20546;-75
2023/08/19 01:19:29;;;;;;;5.85;2.20;;;23.50;92.80;;;;;;5008156;28;20021;-74
2023/08/19 01:22:01;;;;;;;6.70;3.28;;;23.50;92.90;;;;;;5026839;28;20082;-74
2023/08/19 01:24:37;;;;;;;4.10;2.47;;;23.50;93.20;;;;;;5026938;23;20382;-75
2023/08/19 01:27:04;;;;;;;5.63;2.75;;;23.40;93.40;;;;;;4986645;28;20409;-75
2023/08/19 01:29:30;;;;;;;8.18;2.92;;;23.40;93.50;;;;;;4985856;28;20023;-75
2023/08/19 01:31:56;;;;;;;5.00;2.85;;;23.40;93.70;;;;;;4988676;28;20029;-74
2023/08/19 01:34:22;;;;;;;8.02;3.33;;;23.30;93.70;;;;;;4970656;28;20109;-75
2023/08/19 01:36:53;;;;;;;6.20;2.47;;;23.30;93.80;;;;;;4983239;28;20026;-75
2023/08/19 01:39:22;;;;;;;6.07;2.70;;;23.20;93.90;;;;;;4985079;28;20073;-75
2023/08/19 01:41:50;;;;;;;6.25;3.78;;;23.20;93.90;;;;;;4986444;28;20023;-75
2023/08/19 01:44:16;;;;;;;4.93;2.70;;;23.20;94.00;;;;;;4986341;28;20122;-75
2023/08/19 01:46:41;;;;;;;6.32;2.85;;;23.10;94.30;;;;;;4987113;28;20511;-75
2023/08/19 01:49:07;;;;;;;6.30;3.25;;;23.10;94.50;;;;;;4988182;28;20117;-75
2023/08/19 01:51:33;;;;;;;5.95;2.25;;;23.10;94.70;;;;;;4986732;28;21114;-75
2023/08/19 01:53:58;;;;;;;7.70;2.83;;;23.10;94.80;;;;;;4968152;28;20022;-75
2023/08/19 01:56:25;;;;;;;3.40;2.50;;;23.10;94.90;;;;;;4970134;28;20148;-75
2023/08/19 01:58:51;;;;;;;4.80;2.28;;;23.00;95.00;;;;;;4984273;28;20120;-75
2023/08/19 02:01:16;;;;;;;3.38;1.90;;;23.00;95.10;;;;;;4982289;28;20022;-75
2023/08/19 02:03:42;;;;;;;5.03;2.53;;;23.00;95.20;;;;;;4983185;28;20037;-75
2023/08/19 02:06:08;;;;;;;3.88;2.20;;;22.90;95.30;;;;;;4982090;28;20038;-75
2023/08/19 02:08:33;;;;;;;8.48;2.13;;;22.90;95.50;;;;;;4983252;28;20476;-75
2023/08/19 02:10:59;;;;;;;4.10;2.42;;;22.80;95.70;;;;;;4963640;28;20030;-75
2023/08/19 02:13:24;;;;;;;8.50;2.42;;;22.80;95.90;;;;;;4980386;28;20112;-76
2023/08/19 02:15:50;;;;;;;2.80;2.03;;;22.70;96.10;;;;;;4983585;28;20105;-75
2023/08/19 02:18:17;;;;;;;6.22;2.92;;;22.70;96.20;;;;;;4982509;28;20031;-75
2023/08/19 02:20:47;;;;;;;6.68;2.25;;;22.60;96.20;;;;;;4985947;28;20031;-74
2023/08/19 02:23:12;;;;;;;5.95;2.35;;;22.60;96.30;;;;;;4978427;28;20126;-74
2023/08/19 02:25:38;;;;;;;5.93;2.22;;;22.60;96.30;;;;;;4979867;28;20033;-74
2023/08/19 02:28:04;;;;;;;7.07;3.13;;;22.60;96.30;;;;;;4965397;28;20030;-75
2023/08/19 02:30:31;;;;;;;5.38;3.20;;;22.60;96.30;;;;;;4964543;28;20033;-74
2023/08/19 02:33:03;;;;;;;7.85;2.63;;;22.60;97.00;;;;;;4976678;28;20454;-75
2023/08/19 02:35:28;;;;;;;7.20;3.60;;;22.50;97.30;;;;;;4968591;28;20045;-74
2023/08/19 02:37:54;;;;;;;9.82;2.60;;;22.50;97.70;;;;;;4984023;28;20035;-74
2023/08/19 02:40:20;;;;;;;10.10;3.60;;;22.40;98.00;;;;;;4985258;28;20060;-74
2023/08/19 02:42:45;;;;;;;7.00;3.13;;;22.40;98.30;;;;;;4983072;28;20022;-74
2023/08/19 02:45:11;;;;;;;10.13;3.33;;;22.30;98.50;;;;;;4979630;28;20022;-75
2023/08/19 02:47:37;;;;;;;6.43;3.38;;;22.20;98.70;;;;;;4984833;28;20536;-74
2023/08/19 02:50:02;;;;;;;8.50;3.30;;;22.20;98.90;;;;;;4963987;28;20077;-74
2023/08/19 02:52:28;;;;;;;12.13;3.25;;;22.20;99.00;;;;;;4967082;28;20477;-76
2023/08/19 02:54:54;;;;;;;5.55;2.83;;;22.10;99.20;;;;;;4966955;28;20050;-74
2023/08/19 02:57:19;;;;;;;6.05;3.45;;;22.00;99.40;;;;;;4980775;28;20449;-74
2023/08/19 02:59:45;;;;;;;8.07;3.95;;;22.00;99.60;;;;;;4978251;28;20038;-74
2023/08/19 03:02:10;;;;;;;5.47;3.45;;;22.00;99.80;;;;;;4981017;28;20357;-75
2023/08/19 03:04:37;;;;;;;5.88;3.53;;;22.00;99.90;;;;;;4986079;28;20034;-76
2023/08/19 03:07:02;;;;;;;9.73;4.78;;;21.90;99.90;;;;;;4964387;28;20493;-75
2023/08/19 03:09:28;;;;;;;7.43;4.35;;;21.90;99.90;;;;;;4982691;28;20033;-75
2023/08/19 03:11:54;;;;;;;8.50;3.95;;;21.80;99.90;;;;;;4987614;28;20489;-75
2023/08/19 03:14:19;;;;;;;9.93;4.13;;;21.80;99.90;;;;;;4985811;28;20370;-77
2023/08/19 03:16:45;;;;;;;7.28;3.72;;;21.70;99.90;;;;;;4985696;28;20037;-74
2023/08/19 03:19:10;;;;;;;7.75;4.00;;;21.60;99.90;;;;;;4968736;28;20038;-75
2023/08/19 03:21:36;;;;;;;6.95;4.43;;;21.60;99.90;;;;;;4970368;28;20523;-75
2023/08/19 03:24:02;;;;;;;8.75;4.30;;;21.60;99.90;;;;;;4985728;28;20034;-74
2023/08/19 03:26:28;;;;;;;9.93;3.92;;;21.50;99.90;;;;;;4986649;28;20053;-75
2023/08/19 03:28:53;;;;;;;8.15;4.30;;;21.50;99.90;;;;;;4987155;28;20575;-75
2023/08/19 03:31:19;;;;;;;9.60;4.43;;;21.40;99.90;;;;;;4985200;28;20037;-74
2023/08/19 03:33:45;;;;;;;7.55;4.50;;;21.40;99.90;;;;;;4969956;28;20037;-75
2023/08/19 03:36:11;;;;;;;10.32;4.80;;;21.30;99.90;;;;;;4986957;28;20062;-75
2023/08/19 03:38:36;;;;;;;10.38;4.72;;;21.20;99.90;;;;;;4988853;28;20093;-74
2023/08/19 03:41:02;;;;;;;8.40;4.30;;;21.20;99.90;;;;;;4972278;28;20489;-74
2023/08/19 03:43:27;;;;;;;12.10;4.70;;;21.10;99.90;;;;;;4972563;28;20030;-75
2023/08/19 03:45:53;;;;;;;11.02;5.50;;;21.10;99.90;;;;;;4988028;28;20061;-75
2023/08/19 03:48:18;;;;;;;9.07;4.95;;;21.10;99.90;;;;;;4986693;28;23572;-75
2023/08/19 03:50:44;;;;;;;10.48;5.35;;;21.10;99.90;;;;;;4989840;28;20031;-75
2023/08/19 03:53:10;;;;;;;12.85;4.97;;;21.00;99.90;;;;;;4984214;28;20034;-74
2023/08/19 03:55:36;;;;;;;10.70;5.10;;;21.00;99.90;;;;;;4985098;28;20114;-75
2023/08/19 03:58:01;;;;;;;7.93;4.80;;;21.00;99.90;;;;;;4966815;28;20038;-75
2023/08/19 04:00:27;;;;;;;9.40;5.05;;;21.00;99.90;;;;;;4984277;28;20056;-75
2023/08/19 04:02:53;;;;;;;9.13;4.35;;;20.90;99.90;;;;;;4985244;28;20113;-75
2023/08/19 04:05:19;;;;;;;9.10;4.63;;;20.90;99.90;;;;;;4964645;28;20069;-75
2023/08/19 04:07:44;;;;;;;6.80;3.65;;;20.90;99.90;;;;;;4981932;28;20037;-75
2023/08/19 04:10:10;;;;;;;10.02;4.70;;;20.90;99.90;;;;;;4983310;28;20745;-75
2023/08/19 04:12:36;;;;;;;6.90;4.53;;;20.80;99.90;;;;;;4982906;28;20465;-77
2023/08/19 04:15:02;;;;;;;12.20;4.00;;;20.80;99.90;;;;;;4988484;28;20401;-77
2023/08/19 04:17:29;;;;;;;9.10;3.95;;;20.80;99.90;;;;;;4987883;28;20112;-76
2023/08/19 04:19:54;;;;;;;7.38;3.88;;;20.70;99.90;;;;;;4983858;28;20038;-76
2023/08/19 04:22:20;;;;;;;8.27;5.13;;;20.70;99.90;;;;;;4981296;28;20031;-75
2023/08/19 04:24:50;;;;;;;10.68;4.03;;;20.60;99.90;;;;;;4989609;28;20038;-76
2023/08/19 04:27:16;;;;;;;8.05;4.40;;;20.60;99.90;;;;;;4967139;28;20025;-76
2023/08/19 04:29:42;;;;;;;10.93;4.10;;;20.60;99.90;;;;;;4968635;28;20031;-76
2023/08/19 04:32:07;;;;;;;9.43;3.97;;;20.50;99.90;;;;;;4985281;28;20158;-76
2023/08/19 04:34:33;;;;;;;8.38;3.85;;;20.50;99.90;;;;;;4987405;28;20031;-76
2023/08/19 04:36:59;;;;;;;8.23;4.45;;;20.50;99.90;;;;;;4988670;28;20033;-75
2023/08/19 04:39:24;;;;;;;10.50;4.40;;;20.40;99.90;;;;;;4969221;28;20030;-77
2023/08/19 04:41:50;;;;;;;9.25;4.22;;;20.40;99.90;;;;;;4982474;28;20026;-75
2023/08/19 04:44:16;;;;;;;9.25;4.22;;;20.50;99.90;;;;;;4983575;28;20536;-73
2023/08/19 04:46:42;;;;;;;7.07;4.38;;;20.40;99.90;;;;;;4984822;28;20386;-72
2023/08/19 04:49:08;;;;;;;9.20;4.50;;;20.40;99.90;;;;;;4987351;28;20037;-71
2023/08/19 04:51:34;;;;;;;9.68;3.90;;;20.40;99.90;;;;;;4964571;28;20023;-71
2023/08/19 04:53:59;;;;;;;9.07;4.03;;;20.40;99.90;;;;;;4982840;28;20025;-70
2023/08/19 04:56:25;;;;;;;10.27;4.28;;;20.50;99.90;;;;;;4983246;28;20043;-72
2023/08/19 04:58:51;;;;;;;10.55;3.80;;;20.50;99.90;;;;;;4971463;28;20030;-72
2023/08/19 05:01:17;;;;;;;9.05;3.90;;;20.60;99.90;;;;;;4987565;28;20034;-71
2023/08/19 05:03:43;;;;;;;11.77;3.38;;;20.60;99.90;;;;;;4984515;28;20030;-71
2023/08/19 05:06:09;;;;;;;6.90;3.58;;;20.60;99.90;;;;;;4981677;28;20112;-71
2023/08/19 05:08:34;;;;;;;6.50;3.63;;;20.60;99.90;;;;;;4984955;28;20030;-71
2023/08/19 05:11:00;;;;;;;9.10;3.17;;;20.70;99.90;;;;;;4986107;28;20038;-71
2023/08/19 05:13:25;;;;;;;15.02;3.72;;;20.60;99.90;;;;;;4979834;28;20030;-70
2023/08/19 05:15:51;;;;;;;8.38;3.47;;;20.60;99.90;;;;;;4988887;28;20073;-70
2023/08/19 05:18:17;;;;;;;5.25;3.13;;;20.60;99.90;;;;;;4983605;28;20499;-70
2023/08/19 05:20:45;;;;;;;7.00;3.28;;;20.70;99.90;;;;;;4985081;28;20080;-70
2023/08/19 05:23:11;;;;;;;6.88;3.20;;;20.80;99.90;;;;;;4986502;28;20501;-70
2023/08/19 05:25:37;;;;;;;8.75;3.83;;;20.90;99.90;;;;;;4986769;28;20029;-71
2023/08/19 05:28:03;;;;;;;4.30;3.33;;;21.00;99.90;;;;;;4987142;28;20030;-72
2023/08/19 05:30:29;;;;;;;8.05;3.15;;;21.10;99.90;;;;;;4968556;28;20022;-73
2023/08/19 05:32:54;;;;;;;6.25;3.20;;;21.30;99.90;;;;;;4980160;28;20050;-72
2023/08/19 05:35:20;;;;;;;6.55;3.75;;;21.40;99.90;;;;;;4976348;28;20053;-71
2023/08/19 05:37:45;;;;;;;10.25;3.70;;;21.50;99.90;;;;;;4986052;28;20061;-71
2023/08/19 05:40:11;;;;;;;9.18;3.85;;;21.60;99.90;;;;;;4980409;28;20041;-72
2023/08/19 05:42:37;;;;;;;7.43;3.63;;;21.70;99.90;;;;;;4978743;28;20043;-72
2023/08/19 05:45:03;;;;;;;5.43;3.55;;;21.80;99.90;;;;;;4983060;28;20082;-71
2023/08/19 05:47:29;;;;;;;5.50;3.55;;;21.90;99.90;;;;;;4979929;28;20026;-70
2023/08/19 05:49:54;;;;;;;9.30;3.78;;;21.90;99.90;;;;;;4979003;28;20045;-71
2023/08/19 05:52:20;;;;;;;6.25;3.35;;;22.00;99.90;;;;;;4979453;28;20030;-71
2023/08/19 05:54:45;;;;;;;7.85;3.85;;;22.10;99.90;;;;;;4978122;28;20491;-71
2023/08/19 05:57:11;;;;;;;7.38;3.95;;;22.20;99.90;;;;;;4975742;28;20033;-71
2023/08/19 05:59:37;;;;;;;11.80;4.38;;;22.30;99.90;;;;;;4982327;28;20109;-71
2023/08/19 06:02:02;;;;;;;9.52;4.43;;;22.30;99.90;;;;;;4978612;28;20092;-75
2023/08/19 06:04:28;;;;;;;9.63;4.10;;;22.30;99.90;;;;;;4982212;28;20370;-76
2023/08/19 06:06:53;;;;;;;5.78;3.20;;;22.40;99.90;;;;;;4981354;28;20038;-76
2023/08/19 06:09:19;;;;;;;5.60;3.28;;;22.40;99.90;;;;;;4984077;28;20054;-76
2023/08/19 06:11:50;;;;;;;5.72;3.67;;;22.40;99.90;;;;;;4975341;28;20023;-76
2023/08/19 06:14:16;;;;;;;7.15;3.20;;;22.40;99.90;;;;;;4981034;28;20052;-75
2023/08/19 06:16:42;;;;;;;8.70;3.60;;;22.40;99.90;;;;;;4983449;28;20481;-76
2023/08/19 06:19:07;;;;;;;7.72;3.50;;;22.40;99.90;;;;;;4965294;28;20053;-76
2023/08/19 06:21:33;;;;;;;8.13;3.88;;;22.40;99.90;;;;;;4981744;28;20473;-76
2023/08/19 06:23:59;;;;;;;7.07;3.90;;;22.60;99.90;;;;;;4969030;28;20035;-76
2023/08/19 06:26:28;;;;;;;9.27;4.00;;;22.60;99.90;;;;;;4977147;28;20034;-75
2023/08/19 06:28:53;;;;;;;5.45;3.20;;;22.60;99.90;;;;;;4984013;28;20247;-76
2023/08/19 06:31:19;;;;;;;8.15;3.63;;;22.60;99.90;;;;;;4977985;28;20041;-75
2023/08/19 06:33:45;;;;;;;4.93;3.40;;;22.70;99.90;;;;;;4965814;28;20391;-75
2023/08/19 06:36:15;;;;;;;8.43;3.72;;;22.70;99.90;;;;;;4982927;28;20034;-75
2023/08/19 06:38:47;;;;;;;7.22;3.22;;;22.80;99.90;;;;;;4984793;28;20033;-76
2023/08/19 06:41:13;;;;;;;6.35;3.35;;;22.80;99.90;;;;;;4966620;28;20397;-75
2023/08/19 06:43:40;;;;;;;4.95;3.10;;;22.90;99.90;;;;;;4985999;28;20033;-75
2023/08/19 06:46:07;;;;;;;8.00;3.35;;;23.00;99.90;;;;;;4981321;28;20713;-76
2023/08/19 06:48:34;;;;;;;5.95;3.42;;;23.00;99.90;;;;;;4965672;28;20393;-75
2023/08/19 06:51:01;;;;;;;10.32;3.65;;;23.00;99.90;;;;;;4984711;28;20015;-75
2023/08/19 06:53:27;;;;;;;8.05;3.35;;;23.10;99.90;;;;;;4982475;28;20140;-74
2023/08/19 06:56:11;;;;;;;7.88;4.28;;;23.10;99.90;;;;;;4976280;28;20031;-75
2023/08/19 06:58:41;;;;;;;10.45;4.25;;;23.20;99.90;;;;;;4981175;28;20038;-74
2023/08/19 07:01:14;;;;;;;12.40;4.13;;;23.20;99.90;;;;;;4968676;28;20041;-74
2023/08/19 07:03:40;;;;;;;13.30;4.47;;;23.30;99.90;;;;;;4983668;28;20042;-74
2023/08/19 07:06:07;;;;;;;9.88;4.00;;;23.30;99.90;;;;;;4968122;28;20485;-73
2023/08/19 07:08:36;;;;;;;7.95;3.45;;;23.40;99.90;;;;;;4979819;28;20030;-74
2023/08/19 07:11:02;;;;;;;10.90;3.90;;;23.40;99.90;;;;;;4982517;28;20030;-74
2023/08/19 07:13:28;;;;;;;8.18;3.65;;;23.50;99.90;;;;;;4982842;28;20396;-74
2023/08/19 07:16:03;;;;;;;9.25;3.60;;;23.50;99.90;;;;;;4969027;28;20037;-73
2023/08/19 07:18:34;;;;;;;8.15;3.67;;;23.60;99.90;;;;;;4982430;28;20030;-74
2023/08/19 07:21:00;;;;;;;11.23;4.22;;;23.60;99.90;;;;;;4980700;28;20027;-73
2023/08/19 07:23:27;;;;;;;10.77;3.75;;;23.60;99.90;;;;;;4983861;28;20042;-74
2023/08/19 07:25:53;;;;;;;7.18;3.72;;;23.70;99.90;;;;;;4965308;28;20089;-74
2023/08/19 07:28:23;;;;;;;7.90;3.70;;;23.80;99.90;;;;;;4965994;28;20133;-74
2023/08/19 07:30:48;;;;;;;9.65;3.92;;;23.90;99.90;;;;;;4966798;28;20034;-74
2023/08/19 07:33:14;;;;;;;9.77;3.97;;;24.00;99.90;;;;;;4990535;28;20041;-74
2023/08/19 07:35:40;;;;;;;12.20;4.50;;;24.10;99.90;;;;;;4968438;28;20041;-74
2023/08/19 07:38:06;;;;;;;9.85;4.60;;;24.10;99.90;;;;;;4980422;28;20278;-73
2023/08/19 07:40:32;;;;;;;7.60;4.00;;;24.20;99.90;;;;;;4984043;28;20378;-73
2023/08/19 07:42:58;;;;;;;9.35;3.80;;;24.30;99.90;;;;;;4981810;28;20404;-74
2023/08/19 07:45:23;;;;;;;8.10;4.28;;;24.30;99.90;;;;;;4966537;28;20072;-74
2023/08/19 07:47:49;;;;;;;9.32;4.03;;;24.40;99.90;;;;;;4980533;28;20031;-73
2023/08/19 07:50:14;;;;;;;7.88;4.05;;;24.40;99.90;;;;;;4981349;28;20125;-74
2023/08/19 07:52:40;;;;;;;10.65;4.28;;;24.50;99.90;;;;;;4965423;28;20557;-73
2023/08/19 07:55:07;;;;;;;10.95;4.05;;;24.60;99.90;;;;;;4976759;28;20037;-73
2023/08/19 07:57:32;;;;;;;12.38;4.53;;;24.70;99.90;;;;;;4988574;28;20747;-73
2023/08/19 08:00:00;;;;;;;7.38;3.90;;;24.80;99.90;;;;;;4987657;28;20050;-73
2023/08/19 08:02:26;;;;;;;6.80;3.75;;;25.00;99.90;;;;;;4986793;28;20396;-73
2023/08/19 08:04:51;;;;;;;8.65;4.15;;;25.00;99.90;;;;;;4988255;28;20034;-73
2023/08/19 08:07:17;;;;;;;7.32;4.15;;;25.10;99.90;;;;;;4970055;28;20022;-74
2023/08/19 08:09:45;;;;;;;10.00;4.20;;;25.20;99.90;;;;;;4985471;28;20053;-74
2023/08/19 08:12:11;;;;;;;10.70;4.00;;;25.30;99.90;;;;;;4986722;28;20026;-73
2023/08/19 08:14:37;;;;;;;8.73;4.13;;;25.30;99.90;;;;;;4986899;28;20033;-74
2023/08/19 08:17:02;;;;;;;14.48;4.38;;;25.40;99.90;;;;;;4987206;28;20042;-74
2023/08/19 08:19:28;;;;;;;8.73;4.80;;;25.50;99.90;;;;;;4987189;28;20034;-73
2023/08/19 08:21:54;;;;;;;12.52;4.28;;;25.60;99.90;;;;;;4986551;28;20115;-74
2023/08/19 08:24:22;;;;;;;7.43;3.95;;;25.70;99.90;;;;;;4985227;28;20042;-74
2023/08/19 08:26:47;;;;;;;8.18;4.30;;;25.80;99.90;;;;;;4987441;28;20124;-74
2023/08/19 08:29:13;;;;;;;6.57;3.90;;;25.90;99.90;;;;;;4987798;28;20149;-74
2023/08/19 08:31:38;;;;;;;8.70;4.25;;;25.90;99.90;;;;;;4983428;28;20446;-74
2023/08/19 08:34:05;;;;;;;5.40;3.63;;;26.00;99.90;;;;;;4986255;28;20481;-74
2023/08/19 08:36:30;;;;;;;6.30;3.67;;;26.10;99.90;;;;;;4984559;28;20057;-75
2023/08/19 08:38:56;;;;;;;8.68;3.50;;;26.20;99.90;;;;;;4969115;28;20042;-74
2023/08/19 08:41:22;;;;;;;8.60;3.63;;;26.20;99.90;;;;;;4980332;28;20031;-75
2023/08/19 08:43:48;;;;;;;12.20;4.05;;;26.40;99.80;;;;;;4986517;28;20045;-75
2023/08/19 08:46:22;;;;;;;7.35;4.03;;;26.40;99.60;;;;;;4983890;28;20022;-74
2023/08/19 08:48:47;;;;;;;10.27;4.35;;;26.50;99.40;;;;;;4986804;28;20477;-74
2023/08/19 08:51:15;;;;;;;7.72;3.67;;;26.60;99.30;;;;;;4978204;28;20033;-75
2023/08/19 08:53:41;;;;;;;7.13;3.17;;;26.70;99.10;;;;;;4985631;28;20037;-75
2023/08/19 08:56:07;;;;;;;9.80;3.70;;;26.70;99.00;;;;;;4985981;28;20584;-76
2023/08/19 08:58:33;;;;;;;7.80;4.13;;;26.80;98.80;;;;;;4968092;28;20416;-76
2023/08/19 09:01:02;;;;;;;8.65;3.60;;;26.80;98.80;;;;;;4967703;28;20413;-76
2023/08/19 09:03:32;;;;;;;8.93;4.07;;;26.90;98.90;;;;;;4983065;28;20500;-75
2023/08/19 09:06:03;;;;;;;13.77;3.60;;;26.90;98.90;;;;;;4974583;28;20484;-75
2023/08/19 09:08:45;;;;;;;7.03;3.53;;;27.00;98.80;;;;;;4982241;28;20033;-75
2023/08/19 09:11:18;;;;;;;8.30;4.07;;;27.10;98.40;;;;;;4975889;28;20081;-76
2023/08/19 09:13:47;;;;;;;9.07;4.05;;;27.10;97.70;;;;;;4988084;28;20030;-76
2023/08/19 09:16:12;;;;;;;7.40;4.00;;;27.20;97.40;;;;;;4968296;28;20034;-75
2023/08/19 09:18:39;;;;;;;10.30;4.85;;;27.30;97.40;;;;;;4988362;28;20023;-75
2023/08/19 09:21:06;;;;;;;6.63;3.75;;;27.40;97.30;;;;;;4988473;28;20477;-76
2023/08/19 09:23:32;;;;;;;9.45;3.90;;;27.50;97.10;;;;;;4988676;28;20027;-76
2023/08/19 09:25:58;;;;;;;10.65;4.68;;;27.50;97.10;;;;;;4985884;28;20037;-75
2023/08/19 09:28:24;;;;;;;6.95;3.65;;;27.60;97.00;;;;;;4987069;28;20631;-75
2023/08/19 09:30:50;;;;;;;6.63;3.55;;;27.80;96.40;;;;;;4987094;28;20129;-75
2023/08/19 09:33:20;;;;;;;7.80;4.32;;;27.90;96.00;;;;;;4987456;28;20629;-75
2023/08/19 09:35:54;;;;;;;8.63;3.38;;;28.10;95.60;;;;;;4986907;28;20041;-75
2023/08/19 09:38:22;;;;;;;6.40;3.42;;;28.20;94.90;;;;;;4989246;28;20455;-75
2023/08/19 09:41:08;;;;;;;9.45;3.75;;;28.40;94.60;;;;;;4986353;28;20090;-76
2023/08/19 09:43:38;;;;;;;7.03;3.33;;;28.50;94.20;;;;;;4987796;28;20505;-75
2023/08/19 09:46:03;;;;;;;7.47;3.50;;;28.60;93.70;;;;;;4973738;28;20022;-75
2023/08/19 09:48:29;;;;;;;9.52;3.70;;;28.70;93.70;;;;;;4984009;28;20042;-75
2023/08/19 09:50:55;;;;;;;8.23;3.47;;;28.80;93.50;;;;;;4986871;28;20434;-75
2023/08/19 09:53:21;;;;;;;11.90;3.80;;;28.90;93.40;;;;;;4989701;28;20030;-75
2023/08/19 09:55:49;;;;;;;11.40;3.38;;;29.00;92.50;;;;;;4986440;28;20072;-75
2023/08/19 09:58:15;;;;;;;7.82;3.10;;;29.00;92.50;;;;;;4966879;28;20035;-77
2023/08/19 10:00:41;;;;;;;8.52;4.03;;;29.10;92.40;;;;;;4978643;28;20036;-78
2023/08/19 10:03:07;;;;;;;12.45;3.47;;;29.10;91.90;;;;;;4995999;28;20034;-78
2023/08/19 10:05:39;;;;;;;9.38;3.33;;;29.30;88.70;;;;;;4992099;28;20062;-78
2023/08/19 10:08:08;;;;;;;6.57;2.63;;;29.40;88.50;;;;;;4991019;28;20057;-77
2023/08/19 10:10:37;;;;;;;7.60;3.83;;;29.50;87.50;;;;;;4973892;28;20219;-78
2023/08/19 10:13:04;;;;;;;4.60;2.90;;;29.60;87.10;;;;;;4997687;28;20023;-81
2023/08/19 10:15:33;;;;;;;9.85;3.90;;;29.60;87.30;;;;;;4989474;28;20489;-78
2023/08/19 10:18:03;;;;;;;8.45;3.10;;;29.70;87.90;;;;;;4992241;28;20037;-79
2023/08/19 10:20:31;;;;;;;9.02;3.00;;;29.80;86.40;;;;;;4986654;28;20042;-77
2023/08/19 10:23:01;;;;;;;9.43;3.08;;;29.90;84.10;;;;;;4993962;28;20576;-79
2023/08/19 10:25:28;;;;;;;7.45;3.40;;;30.00;83.70;;;;;;4993093;28;20037;-79
2023/08/19 10:28:06;;;;;;;8.38;3.10;;;30.00;83.60;;;;;;4981924;28;20034;-80
2023/08/19 10:30:32;;;;;;;7.40;3.35;;;30.10;83.00;;;;;;4991420;28;20373;-79
2023/08/19 10:33:03;;;;;;;5.03;2.80;;;30.30;81.30;;;;;;4996269;28;20029;-78
2023/08/19 10:35:49;;;;;;;12.80;3.55;;;30.50;79.20;;;;;;4987008;28;20081;-79
2023/08/19 10:38:15;;;;;;;9.68;3.30;;;30.50;80.00;;;;;;4996482;28;20038;-78
2023/08/19 10:40:41;;;;;;;9.90;3.13;;;30.50;80.70;;;;;;4994317;28;20050;-78
2023/08/19 10:43:07;;;;;;;5.88;2.80;;;30.60;80.00;;;;;;4994019;28;20062;-79
2023/08/19 10:45:34;;;;;;;8.85;3.25;;;30.60;79.30;;;;;;4994166;28;20026;-78
2023/08/19 10:48:00;;;;;;;4.63;2.75;;;30.80;78.90;;;;;;4994109;28;20030;-78
2023/08/19 10:50:26;;;;;;;6.82;3.28;;;30.80;78.70;;;;;;4991255;28;20024;-78
2023/08/19 10:52:58;;;;;;;9.00;3.38;;;30.80;78.00;;;;;;4988384;28;20027;-79
2023/08/19 10:55:24;;;;;;;12.00;2.72;;;31.00;77.10;;;;;;4979967;28;20089;-79
2023/08/19 10:57:50;;;;;;;9.00;3.20;;;31.00;76.90;;;;;;4992936;28;20014;-79
2023/08/19 11:00:16;;;;;;;4.55;2.72;;;31.20;76.40;;;;;;4999959;28;20038;-79
2023/08/19 11:02:41;;;;;;;6.07;2.38;;;31.30;74.80;;;;;;4991496;28;20030;-78
2023/08/19 11:05:07;;;;;;;7.47;2.72;;;31.30;74.90;;;;;;4995526;28;20024;-78
2023/08/19 11:07:33;;;;;;;7.75;3.30;;;31.20;74.40;;;;;;4973969;28;20033;-77
2023/08/19 11:09:59;;;;;;;8.43;3.53;;;31.20;74.30;;;;;;4991747;28;20089;-79
2023/08/19 11:12:29;;;;;;;10.38;3.40;;;31.10;74.10;;;;;;4977086;28;20098;-78
2023/08/19 11:14:55;;;;;;;7.55;3.00;;;31.20;76.20;;;;;;4976466;28;20027;-78
2023/08/19 11:17:47;;;;;;;6.32;3.13;;;31.10;76.50;;;;;;4988101;28;20026;-78
2023/08/19 11:20:14;;;;;;;6.30;3.80;;;31.20;75.60;;;;;;4972568;28;20044;-78
2023/08/19 11:22:44;;;;;;;5.63;3.42;;;31.20;75.00;;;;;;4990406;28;20019;-78
2023/08/19 11:25:09;;;;;;;9.20;3.55;;;31.20;74.60;;;;;;4977860;28;20030;-79
2023/08/19 11:27:35;;;;;;;4.28;2.67;;;31.30;74.10;;;;;;4993753;28;20069;-79
2023/08/19 11:30:01;;;;;;;9.95;3.42;;;31.40;74.50;;;;;;4995217;28;20070;-78
2023/08/19 11:32:29;;;;;;;6.70;2.88;;;31.40;74.80;;;;;;4999209;28;20023;-80
2023/08/19 11:34:55;;;;;;;8.60;3.72;;;31.40;74.20;;;;;;4994849;28;20473;-78
2023/08/19 11:37:21;;;;;;;6.47;3.00;;;31.50;72.50;;;;;;4996989;28;20485;-79
2023/08/19 11:39:46;;;;;;;7.35;2.60;;;31.50;71.40;;;;;;5004012;28;20133;-80
2023/08/19 11:42:12;;;;;;;3.33;2.20;;;31.50;70.50;;;;;;4996192;28;20019;-79
2023/08/19 11:44:42;;;;;;;5.78;2.72;;;31.50;68.30;;;;;;4996425;28;20057;-78
2023/08/19 11:47:07;;;;;;;6.43;2.47;;;31.60;68.00;;;;;;4999671;28;20032;-78
2023/08/19 11:49:33;;;;;;;5.10;2.60;;;31.60;67.30;;;;;;4996464;28;20023;-78
2023/08/19 11:51:59;;;;;;;5.95;2.67;;;31.60;67.70;;;;;;4996727;28;20409;-78
2023/08/19 11:54:25;;;;;;;4.05;2.67;;;31.70;68.60;;;;;;4986759;28;20030;-79
2023/08/19 11:56:56;;;;;;;6.40;2.80;;;31.80;67.20;;;;;;4986489;28;20022;-77
2023/08/19 11:59:29;;;;;;;7.95;2.97;;;31.80;65.80;;;;;;5001919;28;20094;-78
2023/08/19 12:01:56;;;;;;;7.20;3.30;;;31.90;64.40;;;;;;4993264;28;20041;-78
2023/08/19 12:04:23;;;;;;;6.60;2.72;;;32.00;64.80;;;;;;4991488;28;20105;-78
2023/08/19 12:06:49;;;;;;;7.60;3.28;;;32.00;64.20;;;;;;4998281;28;20113;-79
2023/08/19 12:09:22;;;;;;;8.77;2.97;;;32.00;64.60;;;;;;5002859;28;20062;-79
2023/08/19 12:11:48;;;;;;;5.53;2.33;;;32.00;64.60;;;;;;4997134;28;20068;-78
2023/08/19 12:14:14;;;;;;;4.65;2.53;;;32.10;63.60;;;;;;4985251;28;20041;-79
2023/08/19 12:16:39;;;;;;;8.77;2.80;;;32.10;63.60;;;;;;5004594;28;20015;-78
2023/08/19 12:19:05;;;;;;;5.35;2.60;;;32.00;64.20;;;;;;5002310;28;20034;-80
2023/08/19 12:21:30;;;;;;;6.15;2.90;;;32.10;64.20;;;;;;4979389;28;20448;-79
2023/08/19 12:23:56;;;;;;;6.30;2.70;;;32.10;64.10;;;;;;4995428;28;20065;-78
2023/08/19 12:26:22;;;;;;;9.60;2.95;;;32.20;63.30;;;;;;4998778;28;20084;-79
2023/08/19 12:28:48;;;;;;;6.25;2.63;;;32.20;63.30;;;;;;4986988;28;20026;-81
2023/08/19 12:31:14;;;;;;;5.20;2.47;;;32.20;63.20;;;;;;4995447;28;20519;-79
2023/08/19 12:33:40;;;;;;;4.03;2.47;;;32.30;62.70;;;;;;4992645;28;20050;-78
2023/08/19 12:36:06;;;;;;;7.68;3.42;;;32.30;62.70;;;;;;4995084;28;20113;-79
2023/08/19 12:38:31;;;;;;;7.88;2.63;;;32.40;62.20;;;;;;4997308;28;20099;-78
2023/08/19 12:40:57;;;;;;;4.13;2.45;;;32.50;61.70;;;;;;4997365;28;20034;-79
2023/08/19 12:43:23;;;;;;;6.38;2.83;;;32.60;61.00;;;;;;4990654;28;20049;-78